createdAt,value
2018-03-27T00:00:00.569Z,1010.54
2018-03-27T00:01:00.549Z,1010.55
2018-03-27T00:02:00.528Z,1010.57
2018-03-27T00:03:00.512Z,1010.60
2018-03-27T00:04:00.481Z,1010.66
2018-03-27T00:05:00.465Z,1010.68
2018-03-27T00:06:00.438Z,1010.68
2018-03-27T00:07:00.524Z,1010.64
2018-03-27T00:08:00.395Z,1010.65
2018-03-27T00:09:00.382Z,1010.64
2018-03-27T00:10:00.354Z,1010.65
2018-03-27T00:11:00.336Z,1010.61
2018-03-27T00:12:00.309Z,1010.60
2018-03-27T00:13:00.286Z,1010.60
2018-03-27T00:14:00.264Z,1010.59
2018-03-27T00:15:00.245Z,1010.60
2018-03-27T00:16:00.224Z,1010.59
2018-03-27T00:17:00.204Z,1010.59
2018-03-27T00:18:00.178Z,1010.58
2018-03-27T00:19:00.157Z,1010.58
2018-03-27T00:20:00.135Z,1010.56
2018-03-27T00:21:00.115Z,1010.53
2018-03-27T00:22:00.092Z,1010.57
2018-03-27T00:23:00.073Z,1010.53
2018-03-27T00:24:00.054Z,1010.55
2018-03-27T00:25:00.030Z,1010.56
2018-03-27T00:26:00.015Z,1010.54
2018-03-27T00:26:59.986Z,1010.57
2018-03-27T00:27:59.963Z,1010.52
2018-03-27T00:28:59.943Z,1010.51
2018-03-27T00:29:59.929Z,1010.45
2018-03-27T00:30:59.897Z,1010.47
2018-03-27T00:31:59.877Z,1010.49
2018-03-27T00:32:59.989Z,1010.51
2018-03-27T00:33:59.839Z,1010.53
2018-03-27T00:34:59.813Z,1010.53
2018-03-27T00:35:59.888Z,1010.57
2018-03-27T00:36:59.773Z,1010.52
2018-03-27T00:37:59.759Z,1010.46
2018-03-27T00:38:59.790Z,1010.47
2018-03-27T00:39:59.706Z,1010.45
2018-03-27T00:40:59.688Z,1010.43
2018-03-27T00:41:59.660Z,1010.49
2018-03-27T00:42:59.641Z,1010.44
2018-03-27T00:43:59.625Z,1010.45
2018-03-27T00:44:59.602Z,1010.48
2018-03-27T00:45:59.578Z,1010.46
2018-03-27T00:46:59.555Z,1010.48
2018-03-27T00:47:59.533Z,1010.49
2018-03-27T00:48:59.516Z,1010.55
2018-03-27T00:49:59.493Z,1010.55
2018-03-27T00:50:59.469Z,1010.55
2018-03-27T00:51:59.449Z,1010.56
2018-03-27T00:52:59.429Z,1010.56
2018-03-27T00:53:59.406Z,1010.57
2018-03-27T00:54:59.382Z,1010.52
2018-03-27T00:55:59.361Z,1010.54
2018-03-27T00:56:59.338Z,1010.53
2018-03-27T00:57:59.319Z,1010.49
2018-03-27T00:58:59.298Z,1010.47
2018-03-27T00:59:59.278Z,1010.50
2018-03-27T01:00:59.253Z,1010.47
2018-03-27T01:01:59.234Z,1010.49
2018-03-27T01:02:59.210Z,1010.54
2018-03-27T01:03:59.198Z,1010.52
2018-03-27T01:04:59.172Z,1010.53
2018-03-27T01:05:59.158Z,1010.54
2018-03-27T01:06:59.128Z,1010.50
2018-03-27T01:07:59.117Z,1010.50
2018-03-27T01:08:59.104Z,1010.51
2018-03-27T01:09:59.065Z,1010.47
2018-03-27T01:10:59.041Z,1010.42
2018-03-27T01:11:59.020Z,1010.44
2018-03-27T01:12:59.004Z,1010.43
2018-03-27T01:13:58.980Z,1010.40
2018-03-27T01:14:58.958Z,1010.36
2018-03-27T01:15:58.937Z,1010.39
2018-03-27T01:16:58.918Z,1010.39
2018-03-27T01:17:58.892Z,1010.37
2018-03-27T01:18:58.868Z,1010.38
2018-03-27T01:19:58.849Z,1010.40
2018-03-27T01:20:58.827Z,1010.34
2018-03-27T01:21:58.808Z,1010.36
2018-03-27T01:22:58.794Z,1010.31
2018-03-27T01:23:58.768Z,1010.34
2018-03-27T01:24:58.924Z,1010.36
2018-03-27T01:25:58.718Z,1010.37
2018-03-27T01:26:58.698Z,1010.30
2018-03-27T01:27:58.770Z,1010.31
2018-03-27T01:28:58.657Z,1010.30
2018-03-27T01:29:58.637Z,1010.26
2018-03-27T01:30:58.624Z,1010.28
2018-03-27T01:31:58.595Z,1010.17
2018-03-27T01:32:58.569Z,1010.17
2018-03-27T01:33:58.549Z,1010.16
2018-03-27T01:34:58.534Z,1010.18
2018-03-27T01:35:58.514Z,1010.14
2018-03-27T01:36:58.486Z,1010.14
2018-03-27T01:37:58.464Z,1010.18
2018-03-27T01:38:58.443Z,1010.14
2018-03-27T01:39:58.423Z,1010.14
2018-03-27T01:40:58.400Z,1010.11
2018-03-27T01:41:58.378Z,1010.08
2018-03-27T01:42:58.356Z,1010.07
2018-03-27T01:43:58.341Z,1010.07
2018-03-27T01:44:58.316Z,1010.07
2018-03-27T01:45:58.296Z,1010.08
2018-03-27T01:46:58.284Z,1010.07
2018-03-27T01:47:58.258Z,1010.00
2018-03-27T01:48:58.230Z,1010.05
2018-03-27T01:49:58.211Z,1010.00
2018-03-27T01:50:58.188Z,1009.99
2018-03-27T01:51:58.169Z,1009.98
2018-03-27T01:52:58.144Z,1009.94
2018-03-27T01:53:58.123Z,1009.98
2018-03-27T01:54:58.116Z,1009.90
2018-03-27T01:55:58.084Z,1009.93
2018-03-27T01:56:58.061Z,1009.94
2018-03-27T01:57:58.145Z,1009.94
2018-03-27T01:58:58.019Z,1009.92
2018-03-27T01:59:58.001Z,1009.96
2018-03-27T02:00:57.980Z,1009.92
2018-03-27T02:01:57.954Z,1009.92
2018-03-27T02:02:57.932Z,1009.94
2018-03-27T02:03:57.914Z,1009.96
2018-03-27T02:04:57.945Z,1009.88
2018-03-27T02:05:57.870Z,1009.89
2018-03-27T02:06:57.852Z,1009.85
2018-03-27T02:07:57.875Z,1009.82
2018-03-27T02:08:57.810Z,1009.86
2018-03-27T02:09:57.792Z,1009.90
2018-03-27T02:10:57.763Z,1009.84
2018-03-27T02:11:57.746Z,1009.86
2018-03-27T02:12:57.725Z,1009.85
2018-03-27T02:13:57.868Z,1009.88
2018-03-27T02:14:57.685Z,1009.88
2018-03-27T02:15:57.718Z,1009.87
2018-03-27T02:16:57.655Z,1009.86
2018-03-27T02:17:57.621Z,1009.87
2018-03-27T02:18:57.601Z,1009.87
2018-03-27T02:19:57.584Z,1009.87
2018-03-27T02:20:57.562Z,1009.86
2018-03-27T02:21:57.536Z,1009.85
2018-03-27T02:22:57.512Z,1009.82
2018-03-27T02:23:57.494Z,1009.84
2018-03-27T02:24:57.475Z,1009.82
2018-03-27T02:25:57.516Z,1009.85
2018-03-27T02:26:57.429Z,1009.84
2018-03-27T02:27:57.411Z,1009.86
2018-03-27T02:28:57.388Z,1009.84
2018-03-27T02:29:57.367Z,1009.84
2018-03-27T02:30:57.350Z,1009.87
2018-03-27T02:31:57.328Z,1009.88
2018-03-27T02:32:57.336Z,1009.86
2018-03-27T02:33:57.284Z,1009.91
2018-03-27T02:34:57.270Z,1009.87
2018-03-27T02:35:57.258Z,1009.88
2018-03-27T02:36:57.226Z,1009.88
2018-03-27T02:37:57.201Z,1009.86
2018-03-27T02:38:57.180Z,1009.86
2018-03-27T02:39:57.166Z,1009.84
2018-03-27T02:40:57.137Z,1009.85
2018-03-27T02:41:57.136Z,1009.75
2018-03-27T02:42:57.095Z,1009.79
2018-03-27T02:43:57.078Z,1009.80
2018-03-27T02:44:57.057Z,1009.76
2018-03-27T02:45:57.029Z,1009.78
2018-03-27T02:46:57.011Z,1009.75
2018-03-27T02:47:56.997Z,1009.76
2018-03-27T02:48:56.976Z,1009.78
2018-03-27T02:49:56.946Z,1009.75
2018-03-27T02:50:56.926Z,1009.76
2018-03-27T02:51:56.906Z,1009.73
2018-03-27T02:52:56.885Z,1009.74
2018-03-27T02:53:56.865Z,1009.72
2018-03-27T02:54:56.841Z,1009.74
2018-03-27T02:55:56.819Z,1009.71
2018-03-27T02:56:56.806Z,1009.72
2018-03-27T02:57:56.778Z,1009.66
2018-03-27T02:58:56.757Z,1009.69
2018-03-27T02:59:56.736Z,1009.65
2018-03-27T03:00:56.717Z,1009.64
2018-03-27T03:01:56.697Z,1009.63
2018-03-27T03:02:56.673Z,1009.65
2018-03-27T03:03:56.653Z,1009.63
2018-03-27T03:04:56.643Z,1009.60
2018-03-27T03:05:56.642Z,1009.61
2018-03-27T03:06:56.590Z,1009.54
2018-03-27T03:07:56.566Z,1009.57
2018-03-27T03:08:56.547Z,1009.55
2018-03-27T03:09:56.525Z,1009.54
2018-03-27T03:10:56.503Z,1009.50
2018-03-27T03:11:56.489Z,1009.52
2018-03-27T03:12:56.569Z,1009.53
2018-03-27T03:13:56.438Z,1009.52
2018-03-27T03:14:56.423Z,1009.52
2018-03-27T03:15:56.398Z,1009.56
2018-03-27T03:16:56.382Z,1009.56
2018-03-27T03:17:56.351Z,1009.50
2018-03-27T03:18:56.333Z,1009.55
2018-03-27T03:19:56.313Z,1009.57
2018-03-27T03:20:56.288Z,1009.52
2018-03-27T03:21:56.267Z,1009.52
2018-03-27T03:22:56.243Z,1009.53
2018-03-27T03:23:56.224Z,1009.58
2018-03-27T03:24:56.202Z,1009.58
2018-03-27T03:25:56.180Z,1009.54
2018-03-27T03:26:56.156Z,1009.55
2018-03-27T03:27:56.136Z,1009.55
2018-03-27T03:28:56.117Z,1009.54
2018-03-27T03:29:56.092Z,1009.58
2018-03-27T03:30:56.082Z,1009.57
2018-03-27T03:31:56.070Z,1009.56
2018-03-27T03:33:56.005Z,1009.60
2018-03-27T03:34:55.997Z,1009.61
2018-03-27T03:35:55.965Z,1009.62
2018-03-27T03:36:55.949Z,1009.64
2018-03-27T03:37:55.925Z,1009.62
2018-03-27T03:38:55.899Z,1009.63
2018-03-27T03:39:55.887Z,1009.64
2018-03-27T03:40:55.853Z,1009.64
2018-03-27T03:41:55.831Z,1009.65
2018-03-27T03:42:55.819Z,1009.63
2018-03-27T03:43:55.789Z,1009.62
2018-03-27T03:44:55.770Z,1009.61
2018-03-27T03:45:55.745Z,1009.61
2018-03-27T03:46:55.722Z,1009.59
2018-03-27T03:47:55.702Z,1009.61
2018-03-27T03:48:55.682Z,1009.59
2018-03-27T03:49:55.658Z,1009.58
2018-03-27T03:50:55.669Z,1009.57
2018-03-27T03:51:55.612Z,1009.55
2018-03-27T03:52:55.593Z,1009.53
2018-03-27T03:53:55.668Z,1009.56
2018-03-27T03:54:55.546Z,1009.52
2018-03-27T03:55:55.526Z,1009.52
2018-03-27T03:56:55.506Z,1009.48
2018-03-27T03:57:55.481Z,1009.48
2018-03-27T03:58:55.461Z,1009.48
2018-03-27T03:59:55.436Z,1009.45
2018-03-27T04:00:55.419Z,1009.46
2018-03-27T04:01:55.396Z,1009.45
2018-03-27T04:02:55.378Z,1009.43
2018-03-27T04:03:55.351Z,1009.43
2018-03-27T04:04:55.333Z,1009.43
2018-03-27T04:05:55.306Z,1009.39
2018-03-27T04:06:55.291Z,1009.42
2018-03-27T04:07:55.267Z,1009.39
2018-03-27T04:08:55.243Z,1009.42
2018-03-27T04:09:55.218Z,1009.43
2018-03-27T04:10:55.196Z,1009.39
2018-03-27T04:11:55.176Z,1009.38
2018-03-27T04:12:55.157Z,1009.36
2018-03-27T04:13:55.128Z,1009.35
2018-03-27T04:14:55.108Z,1009.35
2018-03-27T04:15:55.088Z,1009.36
2018-03-27T04:16:55.068Z,1009.37
2018-03-27T04:17:55.053Z,1009.37
2018-03-27T04:18:55.022Z,1009.38
2018-03-27T04:19:55.023Z,1009.39
2018-03-27T04:20:54.975Z,1009.41
2018-03-27T04:21:54.955Z,1009.36
2018-03-27T04:22:54.942Z,1009.40
2018-03-27T04:23:54.926Z,1009.36
2018-03-27T04:24:54.885Z,1009.37
2018-03-27T04:25:54.864Z,1009.35
2018-03-27T04:26:54.899Z,1009.38
2018-03-27T04:27:54.823Z,1009.38
2018-03-27T04:28:54.797Z,1009.40
2018-03-27T04:29:54.780Z,1009.34
2018-03-27T04:30:54.752Z,1009.33
2018-03-27T04:31:54.733Z,1009.33
2018-03-27T04:32:54.713Z,1009.34
2018-03-27T04:33:54.687Z,1009.34
2018-03-27T04:34:54.664Z,1009.32
2018-03-27T04:35:54.643Z,1009.30
2018-03-27T04:36:54.635Z,1009.29
2018-03-27T04:37:54.603Z,1009.27
2018-03-27T04:38:54.576Z,1009.31
2018-03-27T04:39:54.555Z,1009.30
2018-03-27T04:40:54.541Z,1009.27
2018-03-27T04:41:54.515Z,1009.31
2018-03-27T04:42:54.497Z,1009.24
2018-03-27T04:43:54.466Z,1009.22
2018-03-27T04:44:54.450Z,1009.20
2018-03-27T04:45:54.525Z,1009.21
2018-03-27T04:46:54.401Z,1009.24
2018-03-27T04:47:54.375Z,1009.20
2018-03-27T04:48:54.420Z,1009.22
2018-03-27T04:49:54.329Z,1009.19
2018-03-27T04:50:54.328Z,1009.19
2018-03-27T04:51:54.291Z,1009.20
2018-03-27T04:52:54.265Z,1009.20
2018-03-27T04:53:54.240Z,1009.24
2018-03-27T04:54:54.221Z,1009.23
2018-03-27T04:55:54.213Z,1009.27
2018-03-27T04:56:54.276Z,1009.22
2018-03-27T04:57:54.153Z,1009.29
2018-03-27T04:58:54.128Z,1009.27
2018-03-27T04:59:54.112Z,1009.32
2018-03-27T05:00:54.089Z,1009.32
2018-03-27T05:01:54.060Z,1009.30
2018-03-27T05:02:54.039Z,1009.29
2018-03-27T05:03:54.020Z,1009.32
2018-03-27T05:04:53.995Z,1009.34
2018-03-27T05:05:54.199Z,1009.37
2018-03-27T05:06:53.950Z,1009.35
2018-03-27T05:07:53.929Z,1009.36
2018-03-27T05:08:53.909Z,1009.31
2018-03-27T05:09:53.879Z,1009.30
2018-03-27T05:10:53.868Z,1009.29
2018-03-27T05:11:53.839Z,1009.26
2018-03-27T05:12:53.902Z,1009.29
2018-03-27T05:13:53.802Z,1009.28
2018-03-27T05:14:53.768Z,1009.28
2018-03-27T05:15:53.756Z,1009.28
2018-03-27T05:16:53.733Z,1009.26
2018-03-27T05:17:53.703Z,1009.23
2018-03-27T05:18:53.681Z,1009.25
2018-03-27T05:19:53.666Z,1009.24
2018-03-27T05:20:53.656Z,1009.25
2018-03-27T05:21:53.615Z,1009.28
2018-03-27T05:22:53.589Z,1009.30
2018-03-27T05:23:53.566Z,1009.26
2018-03-27T05:24:53.546Z,1009.27
2018-03-27T05:25:53.524Z,1009.28
2018-03-27T05:26:53.502Z,1009.28
2018-03-27T05:27:53.485Z,1009.24
2018-03-27T05:28:53.474Z,1009.30
2018-03-27T05:29:53.434Z,1009.28
2018-03-27T05:30:53.411Z,1009.32
2018-03-27T05:31:53.397Z,1009.27
2018-03-27T05:32:53.415Z,1009.27
2018-03-27T05:33:53.347Z,1009.32
2018-03-27T05:34:53.327Z,1009.30
2018-03-27T05:35:53.297Z,1009.28
2018-03-27T05:36:53.275Z,1009.31
2018-03-27T05:37:53.257Z,1009.27
2018-03-27T05:38:53.238Z,1009.29
2018-03-27T05:39:53.206Z,1009.33
2018-03-27T05:40:53.191Z,1009.30
2018-03-27T05:41:53.166Z,1009.30
2018-03-27T05:42:53.145Z,1009.33
2018-03-27T05:43:53.118Z,1009.33
2018-03-27T05:44:53.096Z,1009.31
2018-03-27T05:45:53.078Z,1009.36
2018-03-27T05:46:53.054Z,1009.37
2018-03-27T05:47:53.030Z,1009.38
2018-03-27T05:48:53.004Z,1009.36
2018-03-27T05:49:52.984Z,1009.35
2018-03-27T05:50:52.984Z,1009.33
2018-03-27T05:51:52.938Z,1009.35
2018-03-27T05:52:52.925Z,1009.30
2018-03-27T05:53:52.896Z,1009.30
2018-03-27T05:54:52.873Z,1009.31
2018-03-27T05:55:52.890Z,1009.28
2018-03-27T05:56:52.848Z,1009.25
2018-03-27T05:57:52.818Z,1009.27
2018-03-27T05:58:52.807Z,1009.25
2018-03-27T05:59:52.760Z,1009.23
2018-03-27T06:00:52.736Z,1009.25
2018-03-27T06:01:52.723Z,1009.23
2018-03-27T06:02:52.699Z,1009.23
2018-03-27T06:03:52.669Z,1009.23
2018-03-27T06:04:52.655Z,1009.23
2018-03-27T06:05:52.623Z,1009.20
2018-03-27T06:06:52.606Z,1009.23
2018-03-27T06:07:52.576Z,1009.19
2018-03-27T06:08:52.555Z,1009.13
2018-03-27T06:09:52.532Z,1009.15
2018-03-27T06:10:52.512Z,1009.14
2018-03-27T06:11:52.488Z,1009.13
2018-03-27T06:12:52.465Z,1009.14
2018-03-27T06:13:52.441Z,1009.15
2018-03-27T06:14:52.431Z,1009.12
2018-03-27T06:15:52.399Z,1009.14
2018-03-27T06:16:52.379Z,1009.16
2018-03-27T06:17:52.354Z,1009.17
2018-03-27T06:18:52.341Z,1009.13
2018-03-27T06:19:52.309Z,1009.19
2018-03-27T06:20:52.295Z,1009.21
2018-03-27T06:21:52.266Z,1009.15
2018-03-27T06:22:52.244Z,1009.18
2018-03-27T06:23:52.256Z,1009.18
2018-03-27T06:24:52.194Z,1009.14
2018-03-27T06:25:52.177Z,1009.18
2018-03-27T06:26:52.163Z,1009.17
2018-03-27T06:27:52.129Z,1009.19
2018-03-27T06:28:52.108Z,1009.19
2018-03-27T06:29:52.086Z,1009.16
2018-03-27T06:30:52.066Z,1009.19
2018-03-27T06:31:52.038Z,1009.19
2018-03-27T06:32:52.019Z,1009.21
2018-03-27T06:33:52.017Z,1009.19
2018-03-27T06:34:51.972Z,1009.21
2018-03-27T06:35:51.951Z,1009.18
2018-03-27T06:36:51.948Z,1009.20
2018-03-27T06:37:51.908Z,1009.19
2018-03-27T06:38:51.887Z,1009.21
2018-03-27T06:39:51.866Z,1009.19
2018-03-27T06:40:51.840Z,1009.16
2018-03-27T06:41:51.821Z,1009.22
2018-03-27T06:42:51.807Z,1009.16
2018-03-27T06:43:51.773Z,1009.18
2018-03-27T06:44:51.751Z,1009.18
2018-03-27T06:45:51.726Z,1009.17
2018-03-27T06:46:51.712Z,1009.17
2018-03-27T06:47:51.745Z,1009.20
2018-03-27T06:48:51.733Z,1009.21
2018-03-27T06:49:51.637Z,1009.21
2018-03-27T06:50:51.620Z,1009.23
2018-03-27T06:51:51.595Z,1009.23
2018-03-27T06:52:51.616Z,1009.25
2018-03-27T06:53:51.550Z,1009.26
2018-03-27T06:54:51.527Z,1009.29
2018-03-27T06:55:51.506Z,1009.28
2018-03-27T06:56:51.495Z,1009.28
2018-03-27T06:57:51.459Z,1009.26
2018-03-27T06:58:51.491Z,1009.20
2018-03-27T06:59:51.504Z,1009.23
2018-03-27T07:00:51.394Z,1009.22
2018-03-27T07:01:51.371Z,1009.21
2018-03-27T07:02:51.356Z,1009.16
2018-03-27T07:03:51.357Z,1009.18
2018-03-27T07:04:51.303Z,1009.22
2018-03-27T07:05:51.333Z,1009.18
2018-03-27T07:06:51.259Z,1009.14
2018-03-27T07:07:51.237Z,1009.12
2018-03-27T07:08:51.215Z,1009.15
2018-03-27T07:09:51.228Z,1009.08
2018-03-27T07:10:51.169Z,1009.11
2018-03-27T07:11:51.149Z,1009.10
2018-03-27T07:12:51.171Z,1009.12
2018-03-27T07:13:51.129Z,1009.11
2018-03-27T07:14:51.085Z,1009.10
2018-03-27T07:15:51.065Z,1009.09
2018-03-27T07:16:51.049Z,1009.08
2018-03-27T07:17:51.015Z,1009.07
2018-03-27T07:18:51.021Z,1009.07
2018-03-27T07:19:50.977Z,1009.10
2018-03-27T07:20:50.985Z,1009.06
2018-03-27T07:21:50.965Z,1009.03
2018-03-27T07:22:50.907Z,1009.06
2018-03-27T07:23:50.887Z,1009.07
2018-03-27T07:24:50.896Z,1009.07
2018-03-27T07:25:50.844Z,1009.05
2018-03-27T07:26:50.821Z,1009.06
2018-03-27T07:27:50.802Z,1009.03
2018-03-27T07:28:50.782Z,1009.03
2018-03-27T07:29:50.766Z,1009.06
2018-03-27T07:30:50.736Z,1009.07
2018-03-27T07:31:50.716Z,1009.04
2018-03-27T07:32:50.697Z,1009.01
2018-03-27T07:33:50.679Z,1009.02
2018-03-27T07:34:50.661Z,1009.01
2018-03-27T07:35:50.633Z,1009.02
2018-03-27T07:36:50.620Z,1008.99
2018-03-27T07:37:50.593Z,1009.01
2018-03-27T07:38:50.575Z,1009.05
2018-03-27T07:39:50.558Z,1009.03
2018-03-27T07:40:50.534Z,1009.02
2018-03-27T07:41:50.510Z,1009.02
2018-03-27T07:42:50.503Z,1009.01
2018-03-27T07:43:50.478Z,1009.03
2018-03-27T07:44:50.456Z,1009.00
2018-03-27T07:45:50.432Z,1009.01
2018-03-27T07:46:50.421Z,1009.05
2018-03-27T07:47:50.391Z,1009.06
2018-03-27T07:48:50.379Z,1009.11
2018-03-27T07:49:50.356Z,1009.06
2018-03-27T07:50:50.334Z,1009.09
2018-03-27T07:51:50.402Z,1009.08
2018-03-27T07:52:50.292Z,1009.13
2018-03-27T07:53:50.272Z,1009.14
2018-03-27T07:54:50.248Z,1009.14
2018-03-27T07:55:50.242Z,1009.14
2018-03-27T07:56:50.211Z,1009.11
2018-03-27T07:57:50.201Z,1009.11
2018-03-27T07:58:50.180Z,1009.09
2018-03-27T07:59:50.157Z,1009.10
2018-03-27T08:00:50.137Z,1009.09
2018-03-27T08:01:50.120Z,1009.13
2018-03-27T08:02:50.102Z,1009.08
2018-03-27T08:03:50.151Z,1009.07
2018-03-27T08:04:50.062Z,1009.07
2018-03-27T08:05:50.042Z,1009.04
2018-03-27T08:06:50.023Z,1009.03
2018-03-27T08:07:50.003Z,1009.04
2018-03-27T08:08:49.989Z,1009.01
2018-03-27T08:09:49.976Z,1009.05
2018-03-27T08:10:49.952Z,1009.04
2018-03-27T08:11:49.932Z,1009.10
2018-03-27T08:12:49.909Z,1009.01
2018-03-27T08:13:49.893Z,1008.96
2018-03-27T08:14:49.878Z,1008.98
2018-03-27T08:15:49.863Z,1009.03
2018-03-27T08:16:49.842Z,1009.04
2018-03-27T08:17:49.826Z,1008.95
2018-03-27T08:18:49.800Z,1008.97
2018-03-27T08:19:49.784Z,1009.00
2018-03-27T08:20:49.769Z,1008.98
2018-03-27T08:21:49.766Z,1009.00
2018-03-27T08:22:49.732Z,1008.91
2018-03-27T08:23:49.718Z,1008.91
2018-03-27T08:24:49.706Z,1008.87
2018-03-27T08:25:49.680Z,1008.83
2018-03-27T08:26:49.675Z,1008.79
2018-03-27T08:27:49.780Z,1008.76
2018-03-27T08:28:49.637Z,1008.73
2018-03-27T08:29:49.615Z,1008.73
2018-03-27T08:30:49.605Z,1008.71
2018-03-27T08:31:49.577Z,1008.72
2018-03-27T08:32:49.565Z,1008.71
2018-03-27T08:33:49.551Z,1008.67
2018-03-27T08:34:49.537Z,1008.68
2018-03-27T08:35:49.516Z,1008.73
2018-03-27T08:36:49.505Z,1008.67
2018-03-27T08:37:49.480Z,1008.66
2018-03-27T08:38:49.454Z,1008.64
2018-03-27T08:39:49.439Z,1008.64
2018-03-27T08:40:49.422Z,1008.63
2018-03-27T08:41:49.410Z,1008.58
2018-03-27T08:42:49.398Z,1008.54
2018-03-27T08:43:49.367Z,1008.55
2018-03-27T08:44:49.363Z,1008.46
2018-03-27T08:45:49.329Z,1008.48
2018-03-27T08:46:49.332Z,1008.48
2018-03-27T08:47:49.314Z,1008.45
2018-03-27T08:48:49.278Z,1008.47
2018-03-27T08:49:49.376Z,1008.45
2018-03-27T08:50:49.242Z,1008.45
2018-03-27T08:51:49.234Z,1008.45
2018-03-27T08:52:49.206Z,1008.50
2018-03-27T08:53:49.185Z,1008.52
2018-03-27T08:54:49.184Z,1008.53
2018-03-27T08:55:49.166Z,1008.55
2018-03-27T08:56:49.151Z,1008.50
2018-03-27T08:57:49.119Z,1008.52
2018-03-27T08:58:49.107Z,1008.51
2018-03-27T08:59:49.095Z,1008.56
2018-03-27T09:00:49.065Z,1008.55
2018-03-27T09:01:49.043Z,1008.56
2018-03-27T09:02:49.032Z,1008.53
2018-03-27T09:03:49.009Z,1008.57
2018-03-27T09:04:48.992Z,1008.54
2018-03-27T09:05:48.984Z,1008.58
2018-03-27T09:06:48.963Z,1008.57
2018-03-27T09:07:48.948Z,1008.59
2018-03-27T09:08:48.931Z,1008.58
2018-03-27T09:09:49.042Z,1008.53
2018-03-27T09:10:48.907Z,1008.50
2018-03-27T09:11:48.886Z,1008.46
2018-03-27T09:12:48.881Z,1008.50
2018-03-27T09:13:48.850Z,1008.50
2018-03-27T09:14:48.843Z,1008.47
2018-03-27T09:15:48.822Z,1008.52
2018-03-27T09:16:48.813Z,1008.50
2018-03-27T09:17:48.784Z,1008.52
2018-03-27T09:18:48.783Z,1008.53
2018-03-27T09:19:48.759Z,1008.61
2018-03-27T09:20:48.743Z,1008.53
2018-03-27T09:21:48.732Z,1008.57
2018-03-27T09:22:48.717Z,1008.56
2018-03-27T09:23:48.698Z,1008.51
2018-03-27T09:24:48.699Z,1008.50
2018-03-27T09:25:48.741Z,1008.58
2018-03-27T09:26:48.665Z,1008.61
2018-03-27T09:27:48.657Z,1008.52
2018-03-27T09:28:48.648Z,1008.51
2018-03-27T09:29:48.628Z,1008.46
2018-03-27T09:30:48.613Z,1008.56
2018-03-27T09:31:48.601Z,1008.52
2018-03-27T09:32:48.587Z,1008.45
2018-03-27T09:33:48.583Z,1008.52
2018-03-27T09:34:48.574Z,1008.60
2018-03-27T09:35:48.553Z,1008.52
2018-03-27T09:36:48.561Z,1008.56
2018-03-27T09:37:48.543Z,1008.53
2018-03-27T09:38:48.520Z,1008.53
2018-03-27T09:39:48.508Z,1008.45
2018-03-27T09:40:48.502Z,1008.47
2018-03-27T09:41:48.500Z,1008.45
2018-03-27T09:42:48.482Z,1008.43
2018-03-27T09:43:48.468Z,1008.43
2018-03-27T09:44:48.455Z,1008.46
2018-03-27T09:45:48.451Z,1008.45
2018-03-27T09:46:48.534Z,1008.47
2018-03-27T09:47:48.432Z,1008.37
2018-03-27T09:48:48.432Z,1008.39
2018-03-27T09:49:48.407Z,1008.36
2018-03-27T09:50:48.401Z,1008.33
2018-03-27T09:51:48.391Z,1008.37
2018-03-27T09:52:48.379Z,1008.36
2018-03-27T09:53:48.383Z,1008.37
2018-03-27T09:54:48.378Z,1008.39
2018-03-27T09:55:48.355Z,1008.37
2018-03-27T09:56:48.355Z,1008.35
2018-03-27T09:57:48.335Z,1008.34
2018-03-27T09:58:48.325Z,1008.30
2018-03-27T09:59:48.418Z,1008.30
2018-03-27T10:00:48.313Z,1008.24
2018-03-27T10:01:48.315Z,1008.21
2018-03-27T10:02:48.339Z,1008.17
2018-03-27T10:03:48.290Z,1008.15
2018-03-27T10:04:48.271Z,1008.19
2018-03-27T10:05:48.262Z,1008.17
2018-03-27T10:06:48.259Z,1008.13
2018-03-27T10:07:48.245Z,1008.15
2018-03-27T10:08:48.260Z,1008.13
2018-03-27T10:09:48.238Z,1008.10
2018-03-27T10:10:48.225Z,1008.05
2018-03-27T10:11:48.221Z,1008.07
2018-03-27T10:12:48.214Z,1008.12
2018-03-27T10:13:48.204Z,1008.06
2018-03-27T10:14:48.193Z,1008.11
2018-03-27T10:15:48.214Z,1007.99
2018-03-27T10:16:48.180Z,1008.05
2018-03-27T10:17:48.159Z,1008.01
2018-03-27T10:18:48.158Z,1008.10
2018-03-27T10:19:48.145Z,1007.99
2018-03-27T10:20:48.148Z,1007.99
2018-03-27T10:21:48.141Z,1008.05
2018-03-27T10:22:48.279Z,1008.02
2018-03-27T10:23:48.127Z,1008.00
2018-03-27T10:24:48.112Z,1007.96
2018-03-27T10:25:48.107Z,1008.04
2018-03-27T10:26:48.084Z,1007.99
2018-03-27T10:27:48.081Z,1007.94
2018-03-27T10:28:48.074Z,1007.95
2018-03-27T10:29:48.067Z,1007.91
2018-03-27T10:30:48.056Z,1007.93
2018-03-27T10:31:48.064Z,1007.92
2018-03-27T10:32:48.055Z,1007.88
2018-03-27T10:33:48.041Z,1007.89
2018-03-27T10:34:48.025Z,1007.87
2018-03-27T10:35:48.018Z,1007.90
2018-03-27T10:36:48.013Z,1007.72
2018-03-27T10:37:48.004Z,1007.85
2018-03-27T10:38:47.992Z,1007.86
2018-03-27T10:39:47.988Z,1007.84
2018-03-27T10:40:47.976Z,1007.86
2018-03-27T10:41:47.971Z,1007.80
2018-03-27T10:42:47.962Z,1007.74
2018-03-27T10:43:47.953Z,1007.77
2018-03-27T10:44:47.944Z,1007.87
2018-03-27T10:45:47.934Z,1007.74
2018-03-27T10:46:47.933Z,1007.77
2018-03-27T10:47:47.919Z,1007.80
2018-03-27T10:48:47.914Z,1007.77
2018-03-27T10:49:47.916Z,1007.93
2018-03-27T10:50:47.901Z,1007.87
2018-03-27T10:51:47.895Z,1007.84
2018-03-27T10:52:47.977Z,1007.86
2018-03-27T10:53:47.877Z,1007.90
2018-03-27T10:54:47.867Z,1007.48
2018-03-27T10:55:47.859Z,1007.31
2018-03-27T10:56:47.854Z,1007.17
2018-03-27T10:57:47.848Z,1007.15
2018-03-27T10:58:47.838Z,1007.15
2018-03-27T10:59:47.844Z,1007.10
2018-03-27T11:00:47.824Z,1007.10
2018-03-27T11:01:47.816Z,1007.07
2018-03-27T11:02:47.819Z,1007.17
2018-03-27T11:03:47.871Z,1007.15
2018-03-27T11:04:47.799Z,1007.06
2018-03-27T11:05:47.869Z,1007.21
2018-03-27T11:06:47.787Z,1007.07
2018-03-27T11:07:47.760Z,1007.00
2018-03-27T11:08:47.812Z,1006.91
2018-03-27T11:09:47.737Z,1006.87
2018-03-27T11:10:47.728Z,1006.88
2018-03-27T11:11:47.724Z,1006.92
2018-03-27T11:12:47.706Z,1006.84
2018-03-27T11:13:47.705Z,1006.86
2018-03-27T11:14:47.685Z,1006.85
2018-03-27T11:15:47.674Z,1006.84
2018-03-27T11:16:47.676Z,1006.94
2018-03-27T11:17:47.646Z,1006.88
2018-03-27T11:18:47.639Z,1006.88
2018-03-27T11:19:47.619Z,1006.95
2018-03-27T11:20:47.616Z,1006.86
2018-03-27T11:21:47.597Z,1006.80
2018-03-27T11:22:47.590Z,1006.78
2018-03-27T11:23:47.596Z,1006.74
2018-03-27T11:24:47.579Z,1006.78
2018-03-27T11:25:47.545Z,1006.70
2018-03-27T11:26:47.543Z,1006.68
2018-03-27T11:27:47.531Z,1006.76
2018-03-27T11:28:47.508Z,1006.69
2018-03-27T11:29:47.502Z,1006.71
2018-03-27T11:30:47.489Z,1006.82
2018-03-27T11:31:47.476Z,1006.76
2018-03-27T11:32:47.475Z,1006.57
2018-03-27T11:33:47.463Z,1006.47
2018-03-27T11:34:47.435Z,1006.46
2018-03-27T11:35:47.422Z,1006.44
2018-03-27T11:36:47.407Z,1006.58
2018-03-27T11:37:47.407Z,1006.42
2018-03-27T11:38:47.385Z,1006.42
2018-03-27T11:39:47.365Z,1006.34
2018-03-27T11:40:47.355Z,1006.33
2018-03-27T11:41:47.342Z,1006.32
2018-03-27T11:42:47.328Z,1006.44
2018-03-27T11:43:47.314Z,1006.35
2018-03-27T11:44:47.310Z,1006.35
2018-03-27T11:45:47.391Z,1006.63
2018-03-27T11:46:47.281Z,1006.38
2018-03-27T11:47:47.263Z,1006.34
2018-03-27T11:48:47.296Z,1006.35
2018-03-27T11:49:47.234Z,1006.42
2018-03-27T11:50:47.223Z,1006.41
2018-03-27T11:51:47.211Z,1006.34
2018-03-27T11:52:47.196Z,1006.35
2018-03-27T11:53:47.187Z,1006.29
2018-03-27T11:54:47.187Z,1006.26
2018-03-27T11:55:47.157Z,1006.18
2018-03-27T11:56:47.153Z,1006.08
2018-03-27T11:57:47.149Z,1006.01
2018-03-27T11:58:47.129Z,1006.03
2018-03-27T11:59:47.111Z,1005.95
2018-03-27T12:00:47.096Z,1005.97
2018-03-27T12:01:47.085Z,1005.88
2018-03-27T12:02:47.069Z,1005.90
2018-03-27T12:03:47.060Z,1005.88
2018-03-27T12:04:47.114Z,1005.87
2018-03-27T12:05:47.041Z,1005.86